createdAt,value
2019-01-20T00:00:21.664Z,0.00
2019-01-20T00:01:21.573Z,0.00
2019-01-20T00:02:21.512Z,0.00
2019-01-20T00:03:21.454Z,0.00
2019-01-20T00:04:21.471Z,0.00
2019-01-20T00:05:21.330Z,0.00
2019-01-20T00:06:21.270Z,0.00
2019-01-20T00:07:21.209Z,0.00
2019-01-20T00:08:21.144Z,0.00
2019-01-20T00:09:21.118Z,0.00
2019-01-20T00:10:21.026Z,0.00
2019-01-20T00:11:20.962Z,0.00
2019-01-20T00:12:20.902Z,0.00
2019-01-20T00:13:20.872Z,0.00
2019-01-20T00:14:20.777Z,0.00
2019-01-20T00:15:20.719Z,0.00
2019-01-20T00:16:20.656Z,0.00
2019-01-20T00:17:20.595Z,0.00
2019-01-20T00:18:20.613Z,0.00
2019-01-20T00:19:20.473Z,0.00
2019-01-20T00:20:20.470Z,0.00
2019-01-20T00:21:20.359Z,0.00
2019-01-20T00:22:20.292Z,0.00
2019-01-20T00:23:20.263Z,0.00
2019-01-20T00:24:20.166Z,0.00
2019-01-20T00:25:20.107Z,0.00
2019-01-20T00:26:20.043Z,0.00
2019-01-20T00:27:19.983Z,0.00
2019-01-20T00:28:19.973Z,0.00
2019-01-20T00:29:19.860Z,0.00
2019-01-20T00:30:19.799Z,0.00
2019-01-20T00:31:19.739Z,0.00
2019-01-20T00:32:19.682Z,0.00
2019-01-20T00:33:19.649Z,0.00
2019-01-20T00:34:19.646Z,0.00
2019-01-20T00:35:19.492Z,0.00
2019-01-20T00:36:19.433Z,0.00
2019-01-20T00:37:19.369Z,0.00
2019-01-20T00:38:19.349Z,0.00
2019-01-20T00:39:19.252Z,0.00
2019-01-20T00:40:19.187Z,0.00
2019-01-20T00:41:24.100Z,0.00
2019-01-20T00:42:19.063Z,0.00
2019-01-20T00:43:19.026Z,0.00
2019-01-20T00:44:18.972Z,0.00
2019-01-20T00:45:18.878Z,0.00
2019-01-20T00:46:18.817Z,0.00
2019-01-20T00:47:18.754Z,0.00
2019-01-20T00:48:18.692Z,0.00
2019-01-20T00:49:18.663Z,0.00
2019-01-20T00:50:18.571Z,0.00
2019-01-20T00:51:18.508Z,0.00
2019-01-20T00:52:18.446Z,0.00
2019-01-20T00:53:18.389Z,0.00
2019-01-20T00:54:18.358Z,0.00
2019-01-20T00:55:18.265Z,0.00
2019-01-20T00:56:18.200Z,0.00
2019-01-20T00:57:18.141Z,0.00
2019-01-20T00:58:18.082Z,0.00
2019-01-20T00:59:18.068Z,0.00
2019-01-20T01:00:17.953Z,0.00
2019-01-20T01:01:17.893Z,0.00
2019-01-20T01:02:17.836Z,0.00
2019-01-20T01:03:17.771Z,0.00
2019-01-20T01:04:17.749Z,0.00
2019-01-20T01:05:17.651Z,0.00
2019-01-20T01:06:17.586Z,0.00
2019-01-20T01:07:17.525Z,0.00
2019-01-20T01:08:17.467Z,0.00
2019-01-20T01:09:17.434Z,0.00
2019-01-20T01:10:17.341Z,0.00
2019-01-20T01:11:17.283Z,0.00
2019-01-20T01:12:17.219Z,0.00
2019-01-20T01:13:17.189Z,0.00
2019-01-20T01:14:17.094Z,0.00
2019-01-20T01:15:17.067Z,0.00
2019-01-20T01:16:16.971Z,0.00
2019-01-20T01:17:16.908Z,0.00
2019-01-20T01:18:16.847Z,0.00
2019-01-20T01:19:16.812Z,0.00
2019-01-20T01:20:16.731Z,0.00
2019-01-20T01:21:16.660Z,0.00
2019-01-20T01:22:16.601Z,0.00
2019-01-20T01:23:16.573Z,0.00
2019-01-20T01:24:16.508Z,0.00
2019-01-20T01:25:16.416Z,0.00
2019-01-20T01:26:16.359Z,0.00
2019-01-20T01:27:16.294Z,0.00
2019-01-20T01:28:16.231Z,0.00
2019-01-20T01:29:16.195Z,0.00
2019-01-20T01:30:16.112Z,0.00
2019-01-20T01:31:16.048Z,0.00
2019-01-20T01:32:15.985Z,0.00
2019-01-20T01:33:15.956Z,0.00
2019-01-20T01:34:15.894Z,0.00
2019-01-20T01:35:15.800Z,0.00
2019-01-20T01:36:15.737Z,0.00
2019-01-20T01:37:15.676Z,0.00
2019-01-20T01:38:15.614Z,0.00
2019-01-20T01:39:15.583Z,0.00
2019-01-20T01:40:15.489Z,0.00
2019-01-20T01:41:15.430Z,0.00
2019-01-20T01:42:15.368Z,0.00
2019-01-20T01:43:15.303Z,0.00
2019-01-20T01:44:15.284Z,0.00
2019-01-20T01:45:15.180Z,0.00
2019-01-20T01:46:15.122Z,0.00
2019-01-20T01:47:15.059Z,0.00
2019-01-20T01:48:14.999Z,0.00
2019-01-20T01:49:14.969Z,0.00
2019-01-20T01:50:14.876Z,0.00
2019-01-20T01:51:14.812Z,0.00
2019-01-20T01:52:14.748Z,0.00
2019-01-20T01:53:14.687Z,0.00
2019-01-20T01:54:14.662Z,0.00
2019-01-20T01:55:14.563Z,0.00
2019-01-20T01:56:14.501Z,0.00
2019-01-20T01:57:14.440Z,0.00
2019-01-20T01:58:14.382Z,0.00
2019-01-20T01:59:14.350Z,0.00
2019-01-20T02:00:14.256Z,0.00
2019-01-20T02:01:14.195Z,0.00
2019-01-20T02:02:14.132Z,0.00
2019-01-20T02:03:14.071Z,0.00
2019-01-20T02:04:14.040Z,0.00
2019-01-20T02:05:13.950Z,0.00
2019-01-20T02:06:13.927Z,0.00
2019-01-20T02:07:13.827Z,0.00
2019-01-20T02:08:13.761Z,0.00
2019-01-20T02:09:13.699Z,0.00
2019-01-20T02:10:13.639Z,0.00
2019-01-20T02:11:13.617Z,0.00
2019-01-20T02:12:13.517Z,0.00
2019-01-20T02:13:13.454Z,0.00
2019-01-20T02:14:13.394Z,0.00
2019-01-20T02:15:13.361Z,0.00
2019-01-20T02:16:13.300Z,0.00
2019-01-20T02:17:13.207Z,0.00
2019-01-20T02:18:13.143Z,0.00
2019-01-20T02:19:13.081Z,0.00
2019-01-20T02:20:13.020Z,0.00
2019-01-20T02:21:12.990Z,0.00
2019-01-20T02:22:12.901Z,0.00
2019-01-20T02:23:12.834Z,0.00
2019-01-20T02:24:12.771Z,0.00
2019-01-20T02:25:12.743Z,0.00
2019-01-20T02:26:12.650Z,0.00
2019-01-20T02:27:12.622Z,0.00
2019-01-20T02:28:12.526Z,0.00
2019-01-20T02:29:12.463Z,0.00
2019-01-20T02:30:12.404Z,0.00
2019-01-20T02:31:12.341Z,0.00
2019-01-20T02:32:12.312Z,0.00
2019-01-20T02:33:12.217Z,0.00
2019-01-20T02:34:12.156Z,0.00
2019-01-20T02:35:12.102Z,0.00
2019-01-20T02:36:12.030Z,0.00
2019-01-20T02:37:12.003Z,0.00
2019-01-20T02:38:11.912Z,0.00
2019-01-20T02:39:11.844Z,0.00
2019-01-20T02:40:11.785Z,0.00
2019-01-20T02:41:11.721Z,0.00
2019-01-20T02:42:11.707Z,0.00
2019-01-20T02:43:11.599Z,0.00
2019-01-20T02:44:11.537Z,0.00
2019-01-20T02:45:11.477Z,0.00
2019-01-20T02:46:11.414Z,0.00
2019-01-20T02:47:11.385Z,0.00
2019-01-20T02:48:11.332Z,0.00
2019-01-20T02:49:11.229Z,0.00
2019-01-20T02:50:11.165Z,0.00
2019-01-20T02:51:11.104Z,0.00
2019-01-20T02:52:11.042Z,0.00
2019-01-20T02:53:11.015Z,0.00
2019-01-20T02:54:10.918Z,0.00
2019-01-20T02:55:10.862Z,0.00
2019-01-20T02:56:10.798Z,0.00
2019-01-20T02:57:10.764Z,0.00
2019-01-20T02:58:10.712Z,0.00
2019-01-20T02:59:10.614Z,0.00
2019-01-20T03:00:10.552Z,0.00
2019-01-20T03:01:10.488Z,0.00
2019-01-20T03:02:10.426Z,0.00
2019-01-20T03:03:10.401Z,0.00
2019-01-20T03:04:10.300Z,0.00
2019-01-20T03:05:10.240Z,0.00
2019-01-20T03:06:10.181Z,0.00
2019-01-20T03:07:10.120Z,0.00
2019-01-20T03:08:10.089Z,0.00
2019-01-20T03:09:10.031Z,0.00
2019-01-20T03:10:09.933Z,0.00
2019-01-20T03:11:09.934Z,0.00
2019-01-20T03:12:09.809Z,0.00
2019-01-20T03:13:09.747Z,0.00
2019-01-20T03:14:09.720Z,0.00
2019-01-20T03:15:09.627Z,0.00
2019-01-20T03:16:09.564Z,0.00
2019-01-20T03:17:09.537Z,0.00
2019-01-20T03:18:09.442Z,0.00
2019-01-20T03:19:09.411Z,0.00
2019-01-20T03:20:09.348Z,0.00
2019-01-20T03:21:09.260Z,0.00
2019-01-20T03:22:09.193Z,0.00
2019-01-20T03:23:09.165Z,0.00
2019-01-20T03:24:09.079Z,0.00
2019-01-20T03:25:09.008Z,0.00
2019-01-20T03:26:08.949Z,0.00
2019-01-20T03:27:08.892Z,0.00
2019-01-20T03:28:08.856Z,0.00
2019-01-20T03:29:08.763Z,0.00
2019-01-20T03:30:08.704Z,0.00
2019-01-20T03:31:08.705Z,0.00
2019-01-20T03:32:08.586Z,0.00
2019-01-20T03:33:08.573Z,0.00
2019-01-20T03:34:08.454Z,0.00
2019-01-20T03:35:08.438Z,0.00
2019-01-20T03:36:08.332Z,0.00
2019-01-20T03:37:08.270Z,0.00
2019-01-20T03:38:08.206Z,0.00
2019-01-20T03:39:08.171Z,0.00
2019-01-20T03:40:08.120Z,0.00
2019-01-20T03:41:08.021Z,0.00
2019-01-20T03:42:12.023Z,0.00
2019-01-20T03:43:07.900Z,0.00
2019-01-20T03:44:07.841Z,0.00
2019-01-20T03:45:07.808Z,0.00
2019-01-20T03:46:07.747Z,0.00
2019-01-20T03:47:07.691Z,0.00
2019-01-20T03:48:07.590Z,0.00
2019-01-20T03:49:07.532Z,0.00
2019-01-20T03:50:07.471Z,0.00
2019-01-20T03:51:07.410Z,0.00
2019-01-20T03:52:07.375Z,0.00
2019-01-20T03:53:07.284Z,0.00
2019-01-20T03:54:07.221Z,0.00
2019-01-20T03:55:07.159Z,0.00
2019-01-20T03:56:07.134Z,0.00
2019-01-20T03:57:07.039Z,0.00
2019-01-20T03:58:06.974Z,0.00
2019-01-20T03:59:06.915Z,0.00
2019-01-20T04:00:06.851Z,0.00
2019-01-20T04:01:06.832Z,0.00
2019-01-20T04:02:06.730Z,0.00
2019-01-20T04:03:06.666Z,0.00
2019-01-20T04:04:06.602Z,0.00
2019-01-20T04:05:06.542Z,0.00
2019-01-20T04:06:06.515Z,0.00
2019-01-20T04:07:06.419Z,0.00
2019-01-20T04:08:06.391Z,0.00
2019-01-20T04:09:06.296Z,0.00
2019-01-20T04:10:06.239Z,0.00
2019-01-20T04:11:06.174Z,0.00
2019-01-20T04:12:06.143Z,0.00
2019-01-20T04:13:06.050Z,0.00
2019-01-20T04:14:05.987Z,0.00
2019-01-20T04:15:05.926Z,0.00
2019-01-20T04:16:05.865Z,0.00
2019-01-20T04:17:05.834Z,0.00
2019-01-20T04:18:05.742Z,0.00
2019-01-20T04:19:05.680Z,0.00
2019-01-20T04:20:05.616Z,0.00
2019-01-20T04:21:05.557Z,0.00
2019-01-20T04:22:05.528Z,0.00
2019-01-20T04:23:05.434Z,0.00
2019-01-20T04:24:05.370Z,0.00
2019-01-20T04:25:05.319Z,0.00
2019-01-20T04:26:05.252Z,0.00
2019-01-20T04:27:05.220Z,0.00
2019-01-20T04:28:05.123Z,0.00
2019-01-20T04:29:05.061Z,0.00
2019-01-20T04:30:05.003Z,0.00
2019-01-20T04:31:04.938Z,0.00
2019-01-20T04:32:04.911Z,0.00
2019-01-20T04:33:04.817Z,0.00
2019-01-20T04:34:04.757Z,0.00
2019-01-20T04:35:04.723Z,0.00
2019-01-20T04:36:04.628Z,0.00
2019-01-20T04:37:04.598Z,0.00
2019-01-20T04:38:04.510Z,0.00
2019-01-20T04:39:04.446Z,0.00
2019-01-20T04:40:04.382Z,0.00
2019-01-20T04:41:04.322Z,0.00
2019-01-20T04:42:04.291Z,0.00
2019-01-20T04:43:04.198Z,0.00
2019-01-20T04:44:04.135Z,0.00
2019-01-20T04:45:04.074Z,0.00
2019-01-20T04:46:04.012Z,0.00
2019-01-20T04:47:03.988Z,0.00
2019-01-20T04:48:03.926Z,0.00
2019-01-20T04:49:03.828Z,0.00
2019-01-20T04:50:03.766Z,0.00
2019-01-20T04:51:03.704Z,0.00
2019-01-20T04:52:03.644Z,0.00
2019-01-20T04:53:03.620Z,0.00
2019-01-20T04:54:03.518Z,0.00
2019-01-20T04:55:03.489Z,0.00
2019-01-20T04:56:03.391Z,0.00
2019-01-20T04:57:03.332Z,0.00
2019-01-20T04:58:03.269Z,0.00
2019-01-20T04:59:03.241Z,0.00
2019-01-20T05:00:03.150Z,0.00
2019-01-20T05:01:03.085Z,0.00
2019-01-20T05:02:03.023Z,0.00
2019-01-20T05:03:02.985Z,0.00
2019-01-20T05:04:02.931Z,0.00
2019-01-20T05:05:02.840Z,0.00
2019-01-20T05:06:02.778Z,0.00
2019-01-20T05:07:02.714Z,0.00
2019-01-20T05:08:02.654Z,0.00
2019-01-20T05:09:02.631Z,0.00
2019-01-20T05:10:02.526Z,0.00
2019-01-20T05:11:02.467Z,0.00
2019-01-20T05:12:02.406Z,0.00
2019-01-20T05:13:02.343Z,0.00
2019-01-20T05:14:02.310Z,0.00
2019-01-20T05:15:02.252Z,0.00
2019-01-20T05:16:02.187Z,0.00
2019-01-20T05:17:02.094Z,0.00
2019-01-20T05:18:02.038Z,0.00
2019-01-20T05:19:01.971Z,0.00
2019-01-20T05:20:01.907Z,0.00
2019-01-20T05:21:01.879Z,0.00
2019-01-20T05:22:01.783Z,0.00
2019-01-20T05:23:01.802Z,0.00
2019-01-20T05:24:01.660Z,0.00
2019-01-20T05:25:01.642Z,0.00
2019-01-20T05:26:01.568Z,0.00
2019-01-20T05:27:01.475Z,0.00
2019-01-20T05:28:01.413Z,0.00
2019-01-20T05:29:01.353Z,0.00
2019-01-20T05:30:01.329Z,0.00
2019-01-20T05:31:01.232Z,0.00
2019-01-20T05:32:01.202Z,0.00
2019-01-20T05:33:01.103Z,0.00
2019-01-20T05:34:01.065Z,0.00
2019-01-20T05:35:00.981Z,0.00
2019-01-20T05:36:00.918Z,0.00
2019-01-20T05:37:00.888Z,0.00
2019-01-20T05:38:00.793Z,0.00
2019-01-20T05:39:00.733Z,0.00
2019-01-20T05:40:00.704Z,0.00
2019-01-20T05:41:00.608Z,0.00
2019-01-20T05:42:00.546Z,0.00
2019-01-20T05:43:00.486Z,0.00
2019-01-20T05:44:00.422Z,0.00
2019-01-20T05:45:00.402Z,0.00
2019-01-20T05:46:00.299Z,0.00
2019-01-20T05:47:00.244Z,0.00
2019-01-20T05:48:00.193Z,0.00
2019-01-20T05:49:00.109Z,0.00
2019-01-20T05:50:00.092Z,0.00
2019-01-20T05:51:00.020Z,0.00
2019-01-20T05:51:59.923Z,0.00
2019-01-20T05:52:59.861Z,0.00
2019-01-20T05:53:59.835Z,0.00
2019-01-20T05:54:59.772Z,0.00
2019-01-20T05:55:59.710Z,0.00
2019-01-20T05:56:59.613Z,0.00
2019-01-20T05:57:59.594Z,0.00
2019-01-20T05:58:59.488Z,0.00
2019-01-20T05:59:59.427Z,0.00
2019-01-20T06:00:59.364Z,0.00
2019-01-20T06:01:59.332Z,0.00
2019-01-20T06:02:59.239Z,0.00
2019-01-20T06:03:59.178Z,0.00
2019-01-20T06:04:59.121Z,0.00
2019-01-20T06:05:59.095Z,0.00
2019-01-20T06:06:58.993Z,0.00
2019-01-20T06:07:58.928Z,0.00
2019-01-20T06:08:58.985Z,0.00
2019-01-20T06:09:58.810Z,0.00
2019-01-20T06:10:58.778Z,0.00
2019-01-20T06:11:58.681Z,0.00
2019-01-20T06:12:58.651Z,0.00
2019-01-20T06:13:58.559Z,0.00
2019-01-20T06:14:58.499Z,0.00
2019-01-20T06:15:58.431Z,0.00
2019-01-20T06:16:58.372Z,0.00
2019-01-20T06:17:58.338Z,0.00
2019-01-20T06:18:58.274Z,0.00
2019-01-20T06:19:58.181Z,0.00
2019-01-20T06:20:58.120Z,0.00
2019-01-20T06:21:58.070Z,0.00
2019-01-20T06:22:58.048Z,0.00
2019-01-20T06:23:57.933Z,0.00
2019-01-20T06:24:57.873Z,0.00
2019-01-20T06:25:57.813Z,0.00
2019-01-20T06:26:57.748Z,0.00
2019-01-20T06:27:57.726Z,0.00
2019-01-20T06:28:57.621Z,0.00
2019-01-20T06:29:57.559Z,0.00
2019-01-20T06:30:57.506Z,0.00
2019-01-20T06:31:57.437Z,0.00
2019-01-20T06:32:57.406Z,0.00
2019-01-20T06:33:57.315Z,0.00
2019-01-20T06:34:57.249Z,0.00
2019-01-20T06:35:57.218Z,0.00
2019-01-20T06:36:57.124Z,0.00
2019-01-20T06:37:57.060Z,0.00
2019-01-20T06:38:57.001Z,0.00
2019-01-20T06:39:56.936Z,0.00
2019-01-20T06:40:56.985Z,0.00
2019-01-20T06:41:56.813Z,0.00
2019-01-20T06:43:01.823Z,0.00
2019-01-20T06:43:56.687Z,0.00
2019-01-20T06:44:56.625Z,0.00
2019-01-20T06:45:56.592Z,0.00
2019-01-20T06:46:56.501Z,0.00
2019-01-20T06:47:56.438Z,0.00
2019-01-20T06:48:56.374Z,0.00
2019-01-20T06:49:56.311Z,0.00
2019-01-20T06:50:56.291Z,0.00
2019-01-20T06:51:56.242Z,0.00
2019-01-20T06:52:56.127Z,0.00
2019-01-20T06:53:56.065Z,0.00
2019-01-20T06:54:56.002Z,0.00
2019-01-20T06:55:55.971Z,0.00
2019-01-20T06:56:55.877Z,0.00
2019-01-20T06:57:55.818Z,0.00
2019-01-20T06:58:55.751Z,5.63
2019-01-20T06:59:55.692Z,5.63
2019-01-20T07:00:55.660Z,5.63
2019-01-20T07:01:55.563Z,5.63
2019-01-20T07:02:55.501Z,5.63
2019-01-20T07:03:55.437Z,5.63
2019-01-20T07:04:55.378Z,5.63
2019-01-20T07:05:55.344Z,11.25
2019-01-20T07:06:55.251Z,11.25
2019-01-20T07:07:55.311Z,11.25
2019-01-20T07:08:55.127Z,11.25
2019-01-20T07:09:55.063Z,11.25
2019-01-20T07:10:55.001Z,11.25
2019-01-20T07:11:54.941Z,16.88
2019-01-20T07:12:54.910Z,16.88
2019-01-20T07:13:54.854Z,16.88
2019-01-20T07:14:54.751Z,16.88
2019-01-20T07:15:54.688Z,22.50
2019-01-20T07:16:54.624Z,22.50
2019-01-20T07:17:54.568Z,22.50
2019-01-20T07:18:54.541Z,22.50
2019-01-20T07:19:54.438Z,28.13
2019-01-20T07:20:54.376Z,28.13
2019-01-20T07:21:54.317Z,28.13
2019-01-20T07:22:54.253Z,33.75
2019-01-20T07:23:54.235Z,33.75
2019-01-20T07:24:54.130Z,33.75
2019-01-20T07:25:54.064Z,39.38
2019-01-20T07:26:54.005Z,39.38
2019-01-20T07:27:53.938Z,45.00
2019-01-20T07:28:53.908Z,45.00
2019-01-20T07:29:53.815Z,45.00
2019-01-20T07:30:53.749Z,50.63
2019-01-20T07:31:53.722Z,50.63
2019-01-20T07:32:53.628Z,56.25
2019-01-20T07:33:53.567Z,56.25
2019-01-20T07:34:53.542Z,56.25
2019-01-20T07:35:53.438Z,61.88
2019-01-20T07:36:53.378Z,61.88
2019-01-20T07:37:53.313Z,67.50
2019-01-20T07:38:53.254Z,67.50
2019-01-20T07:39:53.219Z,73.13
2019-01-20T07:40:53.126Z,73.13
2019-01-20T07:41:53.064Z,78.75
2019-01-20T07:42:53.002Z,78.75
2019-01-20T07:43:52.941Z,84.38
2019-01-20T07:44:52.907Z,84.38
2019-01-20T07:45:52.816Z,84.38
2019-01-20T07:46:52.752Z,90.00
2019-01-20T07:47:52.722Z,90.00
2019-01-20T07:48:52.633Z,95.63
2019-01-20T07:49:52.565Z,95.63
2019-01-20T07:50:52.504Z,101.25
2019-01-20T07:51:52.473Z,101.25
2019-01-20T07:52:52.377Z,106.88
2019-01-20T07:53:52.320Z,106.88
2019-01-20T07:54:52.254Z,112.50
2019-01-20T07:55:52.237Z,118.13
2019-01-20T07:56:52.128Z,118.13
2019-01-20T07:57:52.065Z,151.88
2019-01-20T07:58:52.004Z,264.38
2019-01-20T07:59:51.940Z,500.63
2019-01-20T08:00:51.910Z,630.00
2019-01-20T08:01:51.816Z,804.38
2019-01-20T08:02:51.753Z,1147.50
2019-01-20T08:03:51.691Z,1462.50
2019-01-20T08:04:51.772Z,1513.13
2019-01-20T08:05:51.567Z,1524.38
2019-01-20T08:06:51.508Z,1580.63
2019-01-20T08:07:51.447Z,1608.75
2019-01-20T08:08:51.384Z,1670.63
2019-01-20T08:09:51.352Z,1755.00
2019-01-20T08:10:51.264Z,1771.88
2019-01-20T08:11:51.215Z,1794.38
2019-01-20T08:12:51.186Z,1873.13
2019-01-20T08:13:51.093Z,1890.00
2019-01-20T08:14:51.028Z,1935.00
2019-01-20T08:15:50.970Z,1951.88
2019-01-20T08:16:50.910Z,1963.13
2019-01-20T08:17:50.896Z,2002.50
2019-01-20T08:18:50.798Z,2008.13
2019-01-20T08:19:50.742Z,2041.88
2019-01-20T08:20:50.688Z,2109.38
2019-01-20T08:21:50.639Z,2199.38
2019-01-20T08:22:50.611Z,2238.75
2019-01-20T08:23:50.523Z,2328.75
2019-01-20T08:24:50.470Z,2340.00
2019-01-20T08:25:50.832Z,2368.13
2019-01-20T08:26:50.363Z,2340.00
2019-01-20T08:27:50.375Z,2317.50
2019-01-20T08:28:50.300Z,2368.13
2019-01-20T08:29:50.215Z,2401.88
2019-01-20T08:30:50.194Z,2430.00
2019-01-20T08:31:50.100Z,2497.50
2019-01-20T08:32:50.046Z,2536.88
2019-01-20T08:33:50.030Z,2514.38
2019-01-20T08:34:49.979Z,2559.38
2019-01-20T08:35:49.901Z,2593.13
2019-01-20T08:36:49.875Z,2581.88
2019-01-20T08:37:49.794Z,2559.38
2019-01-20T08:38:49.746Z,2570.63
2019-01-20T08:39:49.695Z,2666.25
2019-01-20T08:40:49.679Z,2767.50
2019-01-20T08:41:49.599Z,2767.50
2019-01-20T08:42:49.547Z,2576.25
2019-01-20T08:43:49.498Z,2671.88
2019-01-20T08:44:49.452Z,2728.13
2019-01-20T08:45:49.435Z,2728.13
2019-01-20T08:46:49.359Z,2756.25
2019-01-20T08:47:49.310Z,2818.13
2019-01-20T08:48:49.262Z,2863.13
2019-01-20T08:49:49.248Z,2812.50
2019-01-20T08:50:49.200Z,2610.00
2019-01-20T08:51:49.118Z,2806.88
2019-01-20T08:52:49.075Z,2705.63
2019-01-20T08:53:49.028Z,2581.88
2019-01-20T08:54:49.018Z,2767.50
2019-01-20T08:55:48.935Z,2953.13
2019-01-20T08:56:48.888Z,3060.00
2019-01-20T08:57:48.844Z,3060.00
2019-01-20T08:58:48.829Z,3020.63
2019-01-20T08:59:48.754Z,2986.88
2019-01-20T09:00:48.705Z,3082.50
2019-01-20T09:01:48.694Z,3065.63
2019-01-20T09:02:48.617Z,3060.00
2019-01-20T09:03:48.606Z,3121.88
2019-01-20T09:04:48.527Z,3138.75
2019-01-20T09:05:48.482Z,3088.13
2019-01-20T09:06:48.435Z,3037.50
2019-01-20T09:07:48.393Z,3155.63
2019-01-20T09:08:48.391Z,3262.50
2019-01-20T09:09:48.305Z,3200.63
2019-01-20T09:10:48.264Z,3093.75
2019-01-20T09:11:48.219Z,2896.88
2019-01-20T09:12:48.178Z,2868.75
2019-01-20T09:13:48.161Z,3003.75
2019-01-20T09:14:48.087Z,3082.50
2019-01-20T09:15:48.044Z,3211.88
2019-01-20T09:16:48.000Z,3330.00
2019-01-20T09:17:47.969Z,3285.00
2019-01-20T09:18:47.960Z,3330.00
2019-01-20T09:19:47.914Z,3431.25
2019-01-20T09:20:47.850Z,3262.50
2019-01-20T09:21:47.786Z,3172.50
2019-01-20T09:22:47.742Z,3172.50
2019-01-20T09:23:47.704Z,3121.88
2019-01-20T09:24:47.691Z,3183.75
2019-01-20T09:25:47.617Z,3121.88
2019-01-20T09:26:47.577Z,3116.25
2019-01-20T09:27:47.531Z,3273.75
2019-01-20T09:28:47.493Z,3386.25
2019-01-20T09:29:47.512Z,3375.00
2019-01-20T09:30:47.408Z,3324.38
2019-01-20T09:31:47.387Z,3526.88
2019-01-20T09:32:47.329Z,3611.25
2019-01-20T09:33:47.287Z,3521.25
2019-01-20T09:34:47.275Z,3240.00
2019-01-20T09:35:47.206Z,3273.75
2019-01-20T09:36:47.165Z,3369.38
2019-01-20T09:37:47.154Z,3515.63
2019-01-20T09:38:47.089Z,3605.63
2019-01-20T09:39:47.038Z,3397.50
2019-01-20T09:40:47.041Z,3420.00
2019-01-20T09:41:46.959Z,3532.50
2019-01-20T09:42:46.923Z,3616.88
2019-01-20T09:43:47.499Z,3628.13
2019-01-20T09:44:46.836Z,3577.50
2019-01-20T09:45:46.831Z,3538.13
2019-01-20T09:46:46.769Z,3470.63
2019-01-20T09:47:46.718Z,3397.50
2019-01-20T09:48:46.681Z,3493.13
2019-01-20T09:49:46.679Z,3453.75
2019-01-20T09:50:46.600Z,3549.38
2019-01-20T09:51:46.559Z,3436.88
2019-01-20T09:52:46.518Z,3285.00
2019-01-20T09:53:46.480Z,3487.50
2019-01-20T09:54:46.472Z,3723.75
2019-01-20T09:55:46.401Z,3622.50
2019-01-20T09:56:46.398Z,3588.75
2019-01-20T09:57:46.318Z,3729.38
2019-01-20T09:58:46.279Z,3791.25
2019-01-20T09:59:46.240Z,3751.88
2019-01-20T10:00:46.230Z,3594.38
2019-01-20T10:01:46.191Z,3673.13
2019-01-20T10:02:46.119Z,3538.13
2019-01-20T10:03:46.080Z,3526.88
2019-01-20T10:04:46.038Z,3577.50
2019-01-20T10:05:46.002Z,3605.63
2019-01-20T10:06:45.994Z,3583.13
2019-01-20T10:07:45.922Z,3571.88
2019-01-20T10:08:45.881Z,3650.63
2019-01-20T10:09:45.841Z,3633.75
2019-01-20T10:10:45.807Z,3566.25
2019-01-20T10:11:45.804Z,3583.13
2019-01-20T10:12:45.723Z,3684.38
2019-01-20T10:13:45.685Z,3566.25
2019-01-20T10:14:45.647Z,3583.13
2019-01-20T10:15:45.605Z,3583.13
2019-01-20T10:16:45.606Z,3667.50
2019-01-20T10:17:45.523Z,3566.25
2019-01-20T10:18:45.487Z,3521.25
2019-01-20T10:19:45.446Z,3577.50
2019-01-20T10:20:45.407Z,3498.75
2019-01-20T10:21:45.397Z,3420.00
2019-01-20T10:22:45.367Z,3504.38
2019-01-20T10:23:45.285Z,3600.00
2019-01-20T10:24:45.245Z,3498.75
2019-01-20T10:25:45.213Z,3375.00
2019-01-20T10:26:45.163Z,3487.50
2019-01-20T10:27:45.160Z,3515.63
2019-01-20T10:28:45.095Z,3245.63
2019-01-20T10:29:45.046Z,3363.75
2019-01-20T10:30:45.005Z,3476.25
2019-01-20T10:31:44.959Z,3240.00
2019-01-20T10:32:47.971Z,3335.63
2019-01-20T10:33:44.877Z,3532.50
2019-01-20T10:34:44.836Z,3487.50
2019-01-20T10:35:44.790Z,3538.13
2019-01-20T10:36:44.752Z,3633.75
2019-01-20T10:37:44.743Z,3397.50
2019-01-20T10:38:44.663Z,2711.25
2019-01-20T10:39:44.619Z,1906.88
2019-01-20T10:40:44.612Z,1074.38
2019-01-20T10:41:44.531Z,658.13
2019-01-20T10:42:44.488Z,618.75
2019-01-20T10:43:44.445Z,596.25
2019-01-20T10:44:44.398Z,585.00
2019-01-20T10:45:44.398Z,596.25
2019-01-20T10:46:44.310Z,579.38
2019-01-20T10:47:44.264Z,573.75
2019-01-20T10:48:44.220Z,568.13
2019-01-20T10:49:44.174Z,562.50
2019-01-20T10:50:44.178Z,562.50
2019-01-20T10:51:44.084Z,551.25
2019-01-20T10:52:44.041Z,551.25
2019-01-20T10:53:43.993Z,551.25
2019-01-20T10:54:43.946Z,540.00
2019-01-20T10:55:43.939Z,540.00
2019-01-20T10:56:43.853Z,534.38
2019-01-20T10:57:43.818Z,523.13
2019-01-20T10:58:43.764Z,528.75
2019-01-20T10:59:43.717Z,528.75
2019-01-20T11:00:43.703Z,528.75
2019-01-20T11:01:43.624Z,523.13
2019-01-20T11:02:43.576Z,523.13
2019-01-20T11:03:43.530Z,523.13
2019-01-20T11:04:43.481Z,517.50
2019-01-20T11:05:43.471Z,517.50
2019-01-20T11:06:43.388Z,511.88
2019-01-20T11:07:43.338Z,511.88
2019-01-20T11:08:43.291Z,506.25
2019-01-20T11:09:43.242Z,506.25
2019-01-20T11:10:43.225Z,500.63
2019-01-20T11:11:43.145Z,495.00
2019-01-20T11:12:43.096Z,495.00
2019-01-20T11:13:43.051Z,495.00
2019-01-20T11:14:43.002Z,489.38
2019-01-20T11:15:42.985Z,489.38
2019-01-20T11:16:42.904Z,483.75
2019-01-20T11:17:42.890Z,483.75
2019-01-20T11:18:42.810Z,483.75
2019-01-20T11:19:42.758Z,483.75
2019-01-20T11:20:42.716Z,478.13
2019-01-20T11:21:42.697Z,478.13
2019-01-20T11:22:42.614Z,472.50
2019-01-20T11:23:42.567Z,466.88
2019-01-20T11:24:42.515Z,472.50
2019-01-20T11:25:42.470Z,472.50
2019-01-20T11:26:42.448Z,478.13
2019-01-20T11:27:42.399Z,472.50
2019-01-20T11:28:42.323Z,466.88
2019-01-20T11:29:42.280Z,466.88
2019-01-20T11:30:42.223Z,461.25
2019-01-20T11:31:42.171Z,455.63
2019-01-20T11:32:42.524Z,455.63
2019-01-20T11:33:42.075Z,455.63
2019-01-20T11:34:42.022Z,450.00
2019-01-20T11:35:41.974Z,450.00
2019-01-20T11:36:41.923Z,444.38
2019-01-20T11:37:41.915Z,444.38
2019-01-20T11:38:41.829Z,444.38
2019-01-20T11:39:41.778Z,438.75
2019-01-20T11:40:41.726Z,433.13
2019-01-20T11:41:41.678Z,433.13
2019-01-20T11:42:41.680Z,433.13
2019-01-20T11:43:41.576Z,433.13
2019-01-20T11:44:41.523Z,427.50
2019-01-20T11:45:41.477Z,421.88
2019-01-20T11:46:41.424Z,421.88
2019-01-20T11:47:42.001Z,410.63
2019-01-20T11:48:41.324Z,405.00
2019-01-20T11:49:41.271Z,393.75
2019-01-20T11:50:41.220Z,388.13
2019-01-20T11:51:41.295Z,388.13
2019-01-20T11:52:41.124Z,393.75
2019-01-20T11:53:41.070Z,405.00
2019-01-20T11:54:41.022Z,405.00
2019-01-20T11:55:40.969Z,405.00
2019-01-20T11:56:40.950Z,405.00
2019-01-20T11:57:40.910Z,405.00
2019-01-20T11:58:40.816Z,410.63
2019-01-20T11:59:40.779Z,410.63
2019-01-20T12:00:40.716Z,410.63
2019-01-20T12:01:40.700Z,410.63
2019-01-20T12:02:40.612Z,405.00
2019-01-20T12:03:40.597Z,405.00
2019-01-20T12:04:40.540Z,405.00
2019-01-20T12:05:40.463Z,399.38
2019-01-20T12:06:40.411Z,399.38
2019-01-20T12:07:40.356Z,393.75
2019-01-20T12:08:40.312Z,393.75
2019-01-20T12:09:40.291Z,393.75
2019-01-20T12:10:40.206Z,393.75
2019-01-20T12:11:40.155Z,393.75
2019-01-20T12:12:40.102Z,388.13
2019-01-20T12:13:40.085Z,388.13
2019-01-20T12:14:40.008Z,382.50
2019-01-20T12:15:39.952Z,388.13
2019-01-20T12:16:39.898Z,376.88
2019-01-20T12:17:39.850Z,371.25
2019-01-20T12:18:39.834Z,371.25
2019-01-20T12:19:39.747Z,365.63
2019-01-20T12:20:39.697Z,360.00
2019-01-20T12:21:39.643Z,360.00
2019-01-20T12:22:39.594Z,360.00
2019-01-20T12:23:39.573Z,354.38
2019-01-20T12:24:39.492Z,348.75
2019-01-20T12:25:39.441Z,348.75
2019-01-20T12:26:39.420Z,348.75
2019-01-20T12:27:39.338Z,343.13
2019-01-20T12:28:39.289Z,337.50
2019-01-20T12:29:39.233Z,331.88
2019-01-20T12:30:39.266Z,331.88
2019-01-20T12:31:39.135Z,326.25
2019-01-20T12:32:39.082Z,320.63
2019-01-20T12:33:39.039Z,320.63
2019-01-20T12:34:39.058Z,320.63
2019-01-20T12:35:38.931Z,315.00
2019-01-20T12:36:38.879Z,309.38
2019-01-20T12:37:38.832Z,309.38
2019-01-20T12:38:38.805Z,309.38
2019-01-20T12:39:38.754Z,303.75
2019-01-20T12:40:38.677Z,303.75
2019-01-20T12:41:38.622Z,298.13
2019-01-20T12:42:38.575Z,298.13
2019-01-20T12:43:38.522Z,292.50
2019-01-20T12:44:38.502Z,286.88
2019-01-20T12:45:38.420Z,281.25
2019-01-20T12:46:38.402Z,281.25
2019-01-20T12:47:38.310Z,281.25
2019-01-20T12:48:38.265Z,275.63
2019-01-20T12:49:38.209Z,270.00
2019-01-20T12:50:38.160Z,275.63